sensor_id;sensor_type;location;lat;lon;timestamp;P1;durP1;ratioP1;P2;durP2;ratioP2
313;SDS011;143;51.634;7.112;2023-04-08T00:01:49;10.20;;;7.10;;
313;SDS011;143;51.634;7.112;2023-04-08T00:04:14;7.20;;;6.17;;
313;SDS011;143;51.634;7.112;2023-04-08T00:06:40;7.20;;;6.50;;
313;SDS011;143;51.634;7.112;2023-04-08T00:09:06;6.27;;;5.93;;
313;SDS011;143;51.634;7.112;2023-04-08T00:11:31;8.83;;;7.17;;
313;SDS011;143;51.634;7.112;2023-04-08T00:13:57;9.87;;;7.73;;
313;SDS011;143;51.634;7.112;2023-04-08T00:16:24;9.93;;;8.07;;
313;SDS011;143;51.634;7.112;2023-04-08T00:18:50;9.90;;;7.20;;
313;SDS011;143;51.634;7.112;2023-04-08T00:21:16;8.70;;;7.40;;
313;SDS011;143;51.634;7.112;2023-04-08T00:23:44;7.93;;;6.83;;
313;SDS011;143;51.634;7.112;2023-04-08T00:26:10;8.60;;;7.37;;
313;SDS011;143;51.634;7.112;2023-04-08T00:28:36;10.43;;;7.90;;
313;SDS011;143;51.634;7.112;2023-04-08T00:31:02;12.32;;;8.40;;
313;SDS011;143;51.634;7.112;2023-04-08T00:33:27;17.77;;;12.47;;
313;SDS011;143;51.634;7.112;2023-04-08T00:35:53;19.50;;;14.77;;
313;SDS011;143;51.634;7.112;2023-04-08T00:38:19;17.83;;;12.43;;
313;SDS011;143;51.634;7.112;2023-04-08T00:40:45;14.73;;;11.60;;
313;SDS011;143;51.634;7.112;2023-04-08T00:43:10;16.63;;;12.90;;
313;SDS011;143;51.634;7.112;2023-04-08T00:45:36;14.93;;;11.60;;
313;SDS011;143;51.634;7.112;2023-04-08T00:48:03;16.60;;;11.97;;
313;SDS011;143;51.634;7.112;2023-04-08T00:50:29;19.58;;;11.07;;
313;SDS011;143;51.634;7.112;2023-04-08T00:52:55;22.60;;;12.67;;
313;SDS011;143;51.634;7.112;2023-04-08T00:55:20;20.17;;;12.27;;
313;SDS011;143;51.634;7.112;2023-04-08T00:57:46;16.20;;;10.60;;
313;SDS011;143;51.634;7.112;2023-04-08T01:00:13;34.60;;;15.90;;
313;SDS011;143;51.634;7.112;2023-04-08T01:08:37;46.00;;;18.10;;
313;SDS011;143;51.634;7.112;2023-04-08T01:11:05;46.45;;;16.48;;
313;SDS011;143;51.634;7.112;2023-04-08T01:13:36;30.85;;;15.23;;
313;SDS011;143;51.634;7.112;2023-04-08T01:16:05;54.10;;;17.95;;
313;SDS011;143;51.634;7.112;2023-04-08T01:18:33;34.60;;;15.88;;
313;SDS011;143;51.634;7.112;2023-04-08T01:21:00;29.23;;;15.50;;
313;SDS011;143;51.634;7.112;2023-04-08T01:26:11;17.50;;;12.55;;
313;SDS011;143;51.634;7.112;2023-04-08T01:28:45;17.15;;;12.15;;
313;SDS011;143;51.634;7.112;2023-04-08T01:31:14;20.30;;;12.35;;
313;SDS011;143;51.634;7.112;2023-04-08T01:33:42;27.67;;;12.35;;
313;SDS011;143;51.634;7.112;2023-04-08T01:36:09;13.38;;;10.77;;
313;SDS011;143;51.634;7.112;2023-04-08T01:38:35;15.80;;;11.40;;
313;SDS011;143;51.634;7.112;2023-04-08T01:41:02;14.55;;;11.55;;
313;SDS011;143;51.634;7.112;2023-04-08T01:43:29;19.05;;;15.13;;
313;SDS011;143;51.634;7.112;2023-04-08T01:45:57;23.27;;;16.50;;
313;SDS011;143;51.634;7.112;2023-04-08T01:48:25;28.40;;;13.80;;
313;SDS011;143;51.634;7.112;2023-04-08T01:50:52;19.92;;;14.27;;
313;SDS011;143;51.634;7.112;2023-04-08T01:53:19;18.25;;;13.85;;
313;SDS011;143;51.634;7.112;2023-04-08T01:55:45;15.77;;;11.83;;
313;SDS011;143;51.634;7.112;2023-04-08T01:58:17;14.63;;;11.13;;
313;SDS011;143;51.634;7.112;2023-04-08T02:00:45;11.32;;;10.18;;
313;SDS011;143;51.634;7.112;2023-04-08T02:03:12;12.95;;;11.02;;
313;SDS011;143;51.634;7.112;2023-04-08T02:05:41;13.77;;;11.60;;
313;SDS011;143;51.634;7.112;2023-04-08T02:08:06;15.70;;;12.20;;
313;SDS011;143;51.634;7.112;2023-04-08T02:10:32;14.67;;;11.37;;
313;SDS011;143;51.634;7.112;2023-04-08T02:12:58;12.37;;;10.37;;
313;SDS011;143;51.634;7.112;2023-04-08T02:15:24;20.45;;;14.55;;
313;SDS011;143;51.634;7.112;2023-04-08T02:17:59;16.45;;;11.52;;
313;SDS011;143;51.634;7.112;2023-04-08T02:20:42;17.30;;;11.77;;
313;SDS011;143;51.634;7.112;2023-04-08T02:23:20;15.00;;;11.68;;
313;SDS011;143;51.634;7.112;2023-04-08T02:25:48;18.60;;;13.60;;
313;SDS011;143;51.634;7.112;2023-04-08T02:28:17;29.23;;;13.05;;
313;SDS011;143;51.634;7.112;2023-04-08T02:30:50;15.93;;;11.57;;
313;SDS011;143;51.634;7.112;2023-04-08T02:33:18;14.60;;;10.75;;
313;SDS011;143;51.634;7.112;2023-04-08T02:35:45;15.43;;;10.55;;
313;SDS011;143;51.634;7.112;2023-04-08T02:38:13;12.30;;;10.20;;
313;SDS011;143;51.634;7.112;2023-04-08T02:40:40;45.78;;;11.15;;
313;SDS011;143;51.634;7.112;2023-04-08T02:43:06;15.50;;;11.10;;
313;SDS011;143;51.634;7.112;2023-04-08T02:45:34;13.53;;;11.40;;
313;SDS011;143;51.634;7.112;2023-04-08T02:48:05;12.85;;;10.90;;
313;SDS011;143;51.634;7.112;2023-04-08T02:50:31;51.50;;;11.70;;
313;SDS011;143;51.634;7.112;2023-04-08T02:52:57;14.80;;;11.30;;
313;SDS011;143;51.634;7.112;2023-04-08T02:55:22;16.70;;;12.33;;
313;SDS011;143;51.634;7.112;2023-04-08T02:57:48;14.90;;;10.50;;
313;SDS011;143;51.634;7.112;2023-04-08T03:00:14;23.50;;;11.10;;
313;SDS011;143;51.634;7.112;2023-04-08T03:02:40;70.20;;;12.65;;
313;SDS011;143;51.634;7.112;2023-04-08T03:05:06;17.10;;;12.30;;
313;SDS011;143;51.634;7.112;2023-04-08T03:07:33;20.00;;;10.85;;
313;SDS011;143;51.634;7.112;2023-04-08T03:09:59;14.13;;;10.60;;
313;SDS011;143;51.634;7.112;2023-04-08T03:12:25;12.38;;;10.20;;
313;SDS011;143;51.634;7.112;2023-04-08T03:14:52;13.88;;;10.07;;
313;SDS011;143;51.634;7.112;2023-04-08T03:17:18;14.75;;;10.10;;
313;SDS011;143;51.634;7.112;2023-04-08T03:19:43;13.27;;;9.70;;
313;SDS011;143;51.634;7.112;2023-04-08T03:22:09;14.90;;;9.70;;
313;SDS011;143;51.634;7.112;2023-04-08T03:24:35;14.60;;;9.40;;
313;SDS011;143;51.634;7.112;2023-04-08T03:27:01;14.77;;;9.65;;
313;SDS011;143;51.634;7.112;2023-04-08T03:29:27;12.13;;;9.65;;
313;SDS011;143;51.634;7.112;2023-04-08T03:31:53;10.93;;;8.47;;
313;SDS011;143;51.634;7.112;2023-04-08T03:34:18;10.97;;;9.13;;
313;SDS011;143;51.634;7.112;2023-04-08T03:36:44;10.10;;;7.80;;
313;SDS011;143;51.634;7.112;2023-04-08T03:39:10;10.30;;;8.37;;
313;SDS011;143;51.634;7.112;2023-04-08T03:41:36;10.57;;;8.87;;
313;SDS011;143;51.634;7.112;2023-04-08T03:44:01;14.63;;;10.27;;
313;SDS011;143;51.634;7.112;2023-04-08T03:46:27;12.60;;;10.27;;
313;SDS011;143;51.634;7.112;2023-04-08T03:48:53;12.33;;;10.07;;
313;SDS011;143;51.634;7.112;2023-04-08T03:51:18;16.20;;;12.10;;
313;SDS011;143;51.634;7.112;2023-04-08T03:53:44;17.67;;;12.30;;
313;SDS011;143;51.634;7.112;2023-04-08T03:56:10;15.97;;;11.90;;
313;SDS011;143;51.634;7.112;2023-04-08T03:58:35;14.00;;;10.47;;
313;SDS011;143;51.634;7.112;2023-04-08T04:01:01;15.13;;;11.33;;
313;SDS011;143;51.634;7.112;2023-04-08T04:03:27;12.35;;;9.98;;
313;SDS011;143;51.634;7.112;2023-04-08T04:05:53;13.53;;;10.63;;
313;SDS011;143;51.634;7.112;2023-04-08T04:08:19;13.30;;;10.27;;
313;SDS011;143;51.634;7.112;2023-04-08T04:10:44;13.37;;;10.70;;
313;SDS011;143;51.634;7.112;2023-04-08T04:13:10;12.13;;;10.27;;
313;SDS011;143;51.634;7.112;2023-04-08T04:15:39;14.70;;;10.87;;
313;SDS011;143;51.634;7.112;2023-04-08T04:18:05;16.98;;;12.88;;
313;SDS011;143;51.634;7.112;2023-04-08T04:20:31;16.77;;;13.18;;
313;SDS011;143;51.634;7.112;2023-04-08T04:22:57;16.70;;;12.63;;
313;SDS011;143;51.634;7.112;2023-04-08T04:25:22;18.40;;;13.33;;
313;SDS011;143;51.634;7.112;2023-04-08T04:27:48;14.77;;;11.53;;
313;SDS011;143;51.634;7.112;2023-04-08T04:30:14;13.53;;;9.90;;
313;SDS011;143;51.634;7.112;2023-04-08T04:32:40;14.37;;;11.60;;
313;SDS011;143;51.634;7.112;2023-04-08T04:35:07;15.70;;;11.38;;
313;SDS011;143;51.634;7.112;2023-04-08T04:37:34;14.15;;;10.45;;
313;SDS011;143;51.634;7.112;2023-04-08T04:40:00;14.52;;;10.90;;
313;SDS011;143;51.634;7.112;2023-04-08T04:42:26;15.98;;;11.52;;
313;SDS011;143;51.634;7.112;2023-04-08T04:44:52;16.23;;;12.27;;
313;SDS011;143;51.634;7.112;2023-04-08T04:47:18;13.75;;;10.38;;
313;SDS011;143;51.634;7.112;2023-04-08T04:49:44;14.80;;;11.13;;
313;SDS011;143;51.634;7.112;2023-04-08T04:52:09;13.27;;;10.30;;
313;SDS011;143;51.634;7.112;2023-04-08T04:54:35;14.13;;;9.60;;
313;SDS011;143;51.634;7.112;2023-04-08T04:57:01;13.53;;;10.50;;
313;SDS011;143;51.634;7.112;2023-04-08T04:59:26;16.97;;;11.00;;
313;SDS011;143;51.634;7.112;2023-04-08T05:01:52;12.10;;;9.07;;
313;SDS011;143;51.634;7.112;2023-04-08T05:04:18;11.77;;;9.27;;
313;SDS011;143;51.634;7.112;2023-04-08T05:06:43;11.20;;;9.00;;
313;SDS011;143;51.634;7.112;2023-04-08T05:09:09;10.40;;;8.70;;
313;SDS011;143;51.634;7.112;2023-04-08T05:11:35;9.10;;;8.23;;
313;SDS011;143;51.634;7.112;2023-04-08T05:14:00;10.50;;;9.23;;
313;SDS011;143;51.634;7.112;2023-04-08T05:16:26;12.70;;;9.77;;
313;SDS011;143;51.634;7.112;2023-04-08T05:18:52;11.43;;;10.23;;
313;SDS011;143;51.634;7.112;2023-04-08T05:21:17;12.70;;;9.70;;
313;SDS011;143;51.634;7.112;2023-04-08T05:23:43;10.43;;;9.50;;
313;SDS011;143;51.634;7.112;2023-04-08T05:26:08;12.60;;;10.20;;
313;SDS011;143;51.634;7.112;2023-04-08T05:28:34;11.53;;;9.97;;
313;SDS011;143;51.634;7.112;2023-04-08T05:31:00;13.27;;;11.10;;
313;SDS011;143;51.634;7.112;2023-04-08T05:33:26;14.13;;;11.40;;
313;SDS011;143;51.634;7.112;2023-04-08T05:35:51;15.70;;;10.90;;
313;SDS011;143;51.634;7.112;2023-04-08T05:38:17;15.40;;;12.20;;
313;SDS011;143;51.634;7.112;2023-04-08T05:40:43;18.90;;;13.10;;
313;SDS011;143;51.634;7.112;2023-04-08T05:43:08;18.90;;;12.90;;
313;SDS011;143;51.634;7.112;2023-04-08T05:45:34;13.97;;;11.13;;
313;SDS011;143;51.634;7.112;2023-04-08T05:48:00;17.23;;;12.97;;
313;SDS011;143;51.634;7.112;2023-04-08T05:50:26;16.33;;;12.53;;
313;SDS011;143;51.634;7.112;2023-04-08T05:52:51;15.93;;;11.13;;
313;SDS011;143;51.634;7.112;2023-04-08T05:55:17;19.27;;;11.73;;
313;SDS011;143;51.634;7.112;2023-04-08T05:57:43;14.80;;;11.43;;
313;SDS011;143;51.634;7.112;2023-04-08T06:00:09;14.77;;;11.20;;
313;SDS011;143;51.634;7.112;2023-04-08T06:02:35;15.65;;;12.38;;
313;SDS011;143;51.634;7.112;2023-04-08T06:05:01;19.53;;;13.90;;
313;SDS011;143;51.634;7.112;2023-04-08T06:07:28;15.85;;;12.00;;
313;SDS011;143;51.634;7.112;2023-04-08T06:09:54;17.33;;;12.40;;
313;SDS011;143;51.634;7.112;2023-04-08T06:12:19;16.77;;;12.00;;
313;SDS011;143;51.634;7.112;2023-04-08T06:14:45;19.97;;;13.40;;
313;SDS011;143;51.634;7.112;2023-04-08T06:17:11;16.30;;;12.40;;
313;SDS011;143;51.634;7.112;2023-04-08T06:19:37;20.00;;;13.70;;
313;SDS011;143;51.634;7.112;2023-04-08T06:22:02;20.20;;;14.30;;
313;SDS011;143;51.634;7.112;2023-04-08T06:24:28;26.67;;;15.20;;
313;SDS011;143;51.634;7.112;2023-04-08T06:26:54;19.13;;;13.93;;
313;SDS011;143;51.634;7.112;2023-04-08T06:29:21;19.25;;;14.10;;
313;SDS011;143;51.634;7.112;2023-04-08T06:31:47;24.70;;;15.25;;
313;SDS011;143;51.634;7.112;2023-04-08T06:34:14;24.35;;;16.13;;
313;SDS011;143;51.634;7.112;2023-04-08T06:36:40;22.90;;;15.80;;
313;SDS011;143;51.634;7.112;2023-04-08T06:39:06;25.00;;;15.90;;
313;SDS011;143;51.634;7.112;2023-04-08T06:41:32;25.07;;;15.20;;
313;SDS011;143;51.634;7.112;2023-04-08T06:43:58;22.53;;;14.53;;
313;SDS011;143;51.634;7.112;2023-04-08T06:46:24;22.52;;;15.95;;
313;SDS011;143;51.634;7.112;2023-04-08T06:48:49;20.80;;;13.67;;
313;SDS011;143;51.634;7.112;2023-04-08T06:51:15;18.93;;;14.10;;
313;SDS011;143;51.634;7.112;2023-04-08T06:53:41;20.63;;;14.60;;
313;SDS011;143;51.634;7.112;2023-04-08T06:56:06;19.57;;;13.67;;
313;SDS011;143;51.634;7.112;2023-04-08T06:58:32;24.80;;;14.50;;
313;SDS011;143;51.634;7.112;2023-04-08T07:00:58;20.33;;;13.13;;
313;SDS011;143;51.634;7.112;2023-04-08T07:03:25;18.63;;;13.20;;
313;SDS011;143;51.634;7.112;2023-04-08T07:05:51;19.90;;;13.60;;
313;SDS011;143;51.634;7.112;2023-04-08T07:08:17;20.13;;;12.50;;
313;SDS011;143;51.634;7.112;2023-04-08T07:10:42;22.17;;;13.77;;
313;SDS011;143;51.634;7.112;2023-04-08T07:13:08;20.30;;;11.73;;
313;SDS011;143;51.634;7.112;2023-04-08T07:15:35;21.00;;;13.17;;
313;SDS011;143;51.634;7.112;2023-04-08T07:18:00;19.50;;;12.93;;
313;SDS011;143;51.634;7.112;2023-04-08T07:20:26;17.57;;;11.53;;
313;SDS011;143;51.634;7.112;2023-04-08T07:22:52;21.03;;;11.40;;
313;SDS011;143;51.634;7.112;2023-04-08T07:25:18;16.13;;;10.90;;
313;SDS011;143;51.634;7.112;2023-04-08T07:27:44;16.87;;;10.90;;
313;SDS011;143;51.634;7.112;2023-04-08T07:30:10;18.67;;;11.93;;
313;SDS011;143;51.634;7.112;2023-04-08T07:32:36;16.47;;;10.70;;
313;SDS011;143;51.634;7.112;2023-04-08T07:35:02;18.37;;;10.77;;
313;SDS011;143;51.634;7.112;2023-04-08T07:37:28;14.67;;;10.93;;
313;SDS011;143;51.634;7.112;2023-04-08T07:39:54;15.50;;;10.30;;
313;SDS011;143;51.634;7.112;2023-04-08T07:42:20;16.40;;;10.70;;
313;SDS011;143;51.634;7.112;2023-04-08T07:44:45;23.00;;;11.50;;
313;SDS011;143;51.634;7.112;2023-04-08T07:47:11;15.00;;;10.27;;
313;SDS011;143;51.634;7.112;2023-04-08T07:49:37;17.63;;;11.50;;
313;SDS011;143;51.634;7.112;2023-04-08T07:52:04;18.07;;;10.00;;
313;SDS011;143;51.634;7.112;2023-04-08T07:54:30;14.20;;;10.33;;
313;SDS011;143;51.634;7.112;2023-04-08T07:56:58;22.20;;;11.23;;
313;SDS011;143;51.634;7.112;2023-04-08T07:59:24;16.10;;;11.03;;
313;SDS011;143;51.634;7.112;2023-04-08T08:01:50;16.90;;;10.60;;
313;SDS011;143;51.634;7.112;2023-04-08T08:04:15;12.27;;;9.30;;
313;SDS011;143;51.634;7.112;2023-04-08T08:06:42;16.73;;;10.50;;
313;SDS011;143;51.634;7.112;2023-04-08T08:09:07;16.33;;;10.30;;
313;SDS011;143;51.634;7.112;2023-04-08T08:11:33;14.33;;;8.93;;
313;SDS011;143;51.634;7.112;2023-04-08T08:13:59;14.90;;;10.27;;
313;SDS011;143;51.634;7.112;2023-04-08T08:16:29;12.13;;;8.53;;
313;SDS011;143;51.634;7.112;2023-04-08T08:18:58;15.60;;;9.47;;
313;SDS011;143;51.634;7.112;2023-04-08T08:21:25;15.20;;;10.00;;
313;SDS011;143;51.634;7.112;2023-04-08T08:23:51;15.20;;;10.57;;
313;SDS011;143;51.634;7.112;2023-04-08T08:26:17;15.90;;;10.67;;
313;SDS011;143;51.634;7.112;2023-04-08T08:28:43;17.47;;;10.47;;
313;SDS011;143;51.634;7.112;2023-04-08T08:31:08;12.33;;;9.47;;
313;SDS011;143;51.634;7.112;2023-04-08T08:33:34;15.23;;;10.67;;
313;SDS011;143;51.634;7.112;2023-04-08T08:36:00;15.33;;;10.77;;
313;SDS011;143;51.634;7.112;2023-04-08T08:38:26;15.03;;;9.80;;
313;SDS011;143;51.634;7.112;2023-04-08T08:40:55;14.03;;;10.23;;
313;SDS011;143;51.634;7.112;2023-04-08T08:43:23;13.23;;;9.30;;
313;SDS011;143;51.634;7.112;2023-04-08T08:45:52;14.80;;;10.70;;
313;SDS011;143;51.634;7.112;2023-04-08T08:48:19;13.53;;;9.43;;
313;SDS011;143;51.634;7.112;2023-04-08T08:50:45;15.80;;;10.33;;
313;SDS011;143;51.634;7.112;2023-04-08T08:53:11;15.63;;;9.10;;
313;SDS011;143;51.634;7.112;2023-04-08T08:55:38;12.30;;;9.10;;
313;SDS011;143;51.634;7.112;2023-04-08T08:58:04;14.27;;;9.53;;
313;SDS011;143;51.634;7.112;2023-04-08T09:05:49;13.50;;;9.50;;
313;SDS011;143;51.634;7.112;2023-04-08T09:11:11;11.40;;;8.67;;
313;SDS011;143;51.634;7.112;2023-04-08T09:13:39;13.23;;;9.17;;
313;SDS011;143;51.634;7.112;2023-04-08T09:16:06;14.00;;;8.83;;
313;SDS011;143;51.634;7.112;2023-04-08T09:18:33;12.40;;;8.43;;
313;SDS011;143;51.634;7.112;2023-04-08T09:21:01;13.40;;;8.87;;
313;SDS011;143;51.634;7.112;2023-04-08T09:26:16;11.73;;;8.10;;
313;SDS011;143;51.634;7.112;2023-04-08T09:31:32;12.40;;;8.73;;
313;SDS011;143;51.634;7.112;2023-04-08T09:34:08;12.57;;;9.87;;
313;SDS011;143;51.634;7.112;2023-04-08T09:36:38;11.37;;;8.37;;
313;SDS011;143;51.634;7.112;2023-04-08T09:39:04;13.73;;;9.23;;
313;SDS011;143;51.634;7.112;2023-04-08T09:41:32;16.53;;;10.50;;
313;SDS011;143;51.634;7.112;2023-04-08T09:43:59;13.10;;;8.20;;
313;SDS011;143;51.634;7.112;2023-04-08T09:49:10;17.03;;;9.03;;
313;SDS011;143;51.634;7.112;2023-04-08T09:51:48;13.70;;;8.37;;
313;SDS011;143;51.634;7.112;2023-04-08T09:54:31;9.10;;;6.93;;
313;SDS011;143;51.634;7.112;2023-04-08T10:00:17;11.20;;;7.40;;
313;SDS011;143;51.634;7.112;2023-04-08T10:02:45;10.70;;;8.00;;
313;SDS011;143;51.634;7.112;2023-04-08T10:05:13;12.73;;;8.03;;
313;SDS011;143;51.634;7.112;2023-04-08T10:07:41;14.17;;;8.90;;
313;SDS011;143;51.634;7.112;2023-04-08T10:10:07;13.33;;;8.90;;
313;SDS011;143;51.634;7.112;2023-04-08T10:12:35;13.97;;;9.23;;
313;SDS011;143;51.634;7.112;2023-04-08T10:15:20;10.73;;;8.10;;
313;SDS011;143;51.634;7.112;2023-04-08T10:20:49;16.00;;;8.43;;
313;SDS011;143;51.634;7.112;2023-04-08T10:23:15;12.03;;;7.97;;
313;SDS011;143;51.634;7.112;2023-04-08T10:25:46;11.93;;;7.20;;
313;SDS011;143;51.634;7.112;2023-04-08T10:30:44;10.23;;;7.67;;
313;SDS011;143;51.634;7.112;2023-04-08T10:35:41;12.40;;;7.63;;
313;SDS011;143;51.634;7.112;2023-04-08T10:38:11;12.37;;;7.67;;
313;SDS011;143;51.634;7.112;2023-04-08T10:40:38;14.40;;;8.43;;
313;SDS011;143;51.634;7.112;2023-04-08T10:43:06;13.37;;;7.97;;
313;SDS011;143;51.634;7.112;2023-04-08T10:45:33;12.20;;;7.50;;
313;SDS011;143;51.634;7.112;2023-04-08T10:50:54;11.00;;;8.30;;
313;SDS011;143;51.634;7.112;2023-04-08T10:53:28;11.40;;;7.87;;
313;SDS011;143;51.634;7.112;2023-04-08T10:56:13;13.97;;;8.10;;
313;SDS011;143;51.634;7.112;2023-04-08T10:58:48;18.13;;;8.30;;
313;SDS011;143;51.634;7.112;2023-04-08T11:01:19;12.00;;;7.77;;
313;SDS011;143;51.634;7.112;2023-04-08T11:03:45;12.13;;;8.20;;
313;SDS011;143;51.634;7.112;2023-04-08T11:06:10;10.13;;;6.90;;
313;SDS011;143;51.634;7.112;2023-04-08T11:08:37;12.40;;;7.90;;
313;SDS011;143;51.634;7.112;2023-04-08T11:11:03;12.37;;;7.50;;
313;SDS011;143;51.634;7.112;2023-04-08T11:13:35;10.40;;;6.80;;
313;SDS011;143;51.634;7.112;2023-04-08T11:16:02;12.60;;;7.40;;
313;SDS011;143;51.634;7.112;2023-04-08T11:18:30;10.87;;;6.33;;
313;SDS011;143;51.634;7.112;2023-04-08T11:20:58;10.40;;;7.37;;
313;SDS011;143;51.634;7.112;2023-04-08T11:23:26;8.90;;;7.13;;
313;SDS011;143;51.634;7.112;2023-04-08T11:25:52;13.03;;;8.50;;
313;SDS011;143;51.634;7.112;2023-04-08T11:28:18;13.63;;;6.93;;
313;SDS011;143;51.634;7.112;2023-04-08T11:30:53;11.13;;;6.70;;
313;SDS011;143;51.634;7.112;2023-04-08T11:33:33;10.10;;;7.00;;
313;SDS011;143;51.634;7.112;2023-04-08T11:36:00;10.80;;;7.43;;
313;SDS011;143;51.634;7.112;2023-04-08T11:38:30;8.87;;;6.53;;
313;SDS011;143;51.634;7.112;2023-04-08T11:40:59;11.33;;;8.07;;
313;SDS011;143;51.634;7.112;2023-04-08T11:43:32;8.93;;;6.50;;
313;SDS011;143;51.634;7.112;2023-04-08T11:46:06;9.80;;;6.77;;
313;SDS011;143;51.634;7.112;2023-04-08T11:48:36;9.20;;;6.50;;
313;SDS011;143;51.634;7.112;2023-04-08T11:51:06;8.03;;;6.23;;
313;SDS011;143;51.634;7.112;2023-04-08T11:53:33;10.37;;;7.43;;
313;SDS011;143;51.634;7.112;2023-04-08T11:56:16;10.13;;;7.80;;
313;SDS011;143;51.634;7.112;2023-04-08T11:58:42;10.17;;;6.50;;
313;SDS011;143;51.634;7.112;2023-04-08T12:01:08;11.03;;;7.03;;
313;SDS011;143;51.634;7.112;2023-04-08T12:03:34;9.87;;;6.57;;
313;SDS011;143;51.634;7.112;2023-04-08T12:06:00;15.90;;;7.57;;
313;SDS011;143;51.634;7.112;2023-04-08T12:08:25;10.97;;;6.30;;
313;SDS011;143;51.634;7.112;2023-04-08T12:10:52;9.70;;;6.87;;
313;SDS011;143;51.634;7.112;2023-04-08T12:13:18;9.57;;;7.37;;
313;SDS011;143;51.634;7.112;2023-04-08T12:15:43;10.77;;;7.63;;
313;SDS011;143;51.634;7.112;2023-04-08T12:18:09;10.70;;;7.80;;
313;SDS011;143;51.634;7.112;2023-04-08T12:20:35;11.43;;;8.40;;
313;SDS011;143;51.634;7.112;2023-04-08T12:23:01;10.07;;;7.33;;
313;SDS011;143;51.634;7.112;2023-04-08T12:25:26;9.90;;;7.33;;
313;SDS011;143;51.634;7.112;2023-04-08T12:27:53;10.00;;;7.73;;
313;SDS011;143;51.634;7.112;2023-04-08T12:30:18;12.83;;;7.13;;
313;SDS011;143;51.634;7.112;2023-04-08T12:32:45;10.57;;;7.73;;
313;SDS011;143;51.634;7.112;2023-04-08T12:35:11;12.93;;;9.10;;
313;SDS011;143;51.634;7.112;2023-04-08T12:37:37;10.07;;;7.77;;
313;SDS011;143;51.634;7.112;2023-04-08T12:40:03;10.70;;;8.07;;
313;SDS011;143;51.634;7.112;2023-04-08T12:42:28;13.33;;;8.20;;
313;SDS011;143;51.634;7.112;2023-04-08T12:44:55;11.87;;;7.43;;
313;SDS011;143;51.634;7.112;2023-04-08T12:47:21;11.77;;;7.90;;
313;SDS011;143;51.634;7.112;2023-04-08T12:49:47;12.27;;;7.93;;
313;SDS011;143;51.634;7.112;2023-04-08T12:52:13;11.10;;;8.37;;
313;SDS011;143;51.634;7.112;2023-04-08T12:54:39;13.10;;;8.30;;
313;SDS011;143;51.634;7.112;2023-04-08T12:57:05;12.70;;;8.40;;
313;SDS011;143;51.634;7.112;2023-04-08T12:59:31;14.93;;;9.20;;
313;SDS011;143;51.634;7.112;2023-04-08T13:01:57;13.37;;;8.60;;
313;SDS011;143;51.634;7.112;2023-04-08T13:04:23;17.50;;;10.33;;
313;SDS011;143;51.634;7.112;2023-04-08T13:06:49;13.30;;;9.23;;
313;SDS011;143;51.634;7.112;2023-04-08T13:09:15;14.97;;;9.03;;
313;SDS011;143;51.634;7.112;2023-04-08T13:11:41;16.67;;;10.20;;
313;SDS011;143;51.634;7.112;2023-04-08T13:14:06;12.27;;;8.97;;
313;SDS011;143;51.634;7.112;2023-04-08T13:16:32;15.90;;;8.70;;
313;SDS011;143;51.634;7.112;2023-04-08T13:18:58;10.83;;;8.80;;
313;SDS011;143;51.634;7.112;2023-04-08T13:21:24;13.53;;;10.27;;
313;SDS011;143;51.634;7.112;2023-04-08T13:23:50;14.63;;;9.37;;
313;SDS011;143;51.634;7.112;2023-04-08T13:26:16;13.43;;;8.80;;
313;SDS011;143;51.634;7.112;2023-04-08T13:28:41;21.13;;;10.77;;
313;SDS011;143;51.634;7.112;2023-04-08T13:31:07;14.60;;;9.73;;
313;SDS011;143;51.634;7.112;2023-04-08T13:33:33;13.13;;;8.77;;
313;SDS011;143;51.634;7.112;2023-04-08T13:35:58;14.40;;;9.93;;
313;SDS011;143;51.634;7.112;2023-04-08T13:38:24;13.50;;;8.77;;
313;SDS011;143;51.634;7.112;2023-04-08T13:40:50;14.87;;;10.10;;
313;SDS011;143;51.634;7.112;2023-04-08T13:43:15;16.33;;;11.00;;
313;SDS011;143;51.634;7.112;2023-04-08T13:45:41;14.20;;;9.20;;
313;SDS011;143;51.634;7.112;2023-04-08T13:48:07;15.10;;;10.80;;
313;SDS011;143;51.634;7.112;2023-04-08T13:50:33;17.10;;;11.27;;
313;SDS011;143;51.634;7.112;2023-04-08T13:52:58;15.53;;;9.80;;
313;SDS011;143;51.634;7.112;2023-04-08T13:55:24;14.10;;;10.10;;
313;SDS011;143;51.634;7.112;2023-04-08T13:57:50;19.73;;;12.50;;
313;SDS011;143;51.634;7.112;2023-04-08T14:00:16;17.30;;;11.30;;
313;SDS011;143;51.634;7.112;2023-04-08T14:02:41;16.63;;;10.73;;
313;SDS011;143;51.634;7.112;2023-04-08T14:05:07;19.33;;;12.47;;
313;SDS011;143;51.634;7.112;2023-04-08T14:07:33;19.93;;;11.67;;
313;SDS011;143;51.634;7.112;2023-04-08T14:09:59;16.40;;;10.00;;
313;SDS011;143;51.634;7.112;2023-04-08T14:12:25;15.37;;;10.23;;
313;SDS011;143;51.634;7.112;2023-04-08T14:14:50;25.73;;;10.77;;
313;SDS011;143;51.634;7.112;2023-04-08T14:17:16;17.30;;;11.70;;
313;SDS011;143;51.634;7.112;2023-04-08T14:19:41;13.70;;;9.43;;
313;SDS011;143;51.634;7.112;2023-04-08T14:22:07;17.33;;;10.60;;
313;SDS011;143;51.634;7.112;2023-04-08T14:24:33;15.67;;;11.13;;
313;SDS011;143;51.634;7.112;2023-04-08T14:26:59;15.37;;;10.77;;
313;SDS011;143;51.634;7.112;2023-04-08T14:29:25;19.73;;;10.67;;
313;SDS011;143;51.634;7.112;2023-04-08T14:31:50;15.07;;;10.43;;
313;SDS011;143;51.634;7.112;2023-04-08T14:34:16;15.40;;;10.70;;
313;SDS011;143;51.634;7.112;2023-04-08T14:36:42;17.77;;;11.60;;
313;SDS011;143;51.634;7.112;2023-04-08T14:39:09;19.00;;;11.93;;
313;SDS011;143;51.634;7.112;2023-04-08T14:41:36;19.50;;;13.23;;
313;SDS011;143;51.634;7.112;2023-04-08T14:44:01;18.17;;;12.23;;
313;SDS011;143;51.634;7.112;2023-04-08T14:46:28;16.83;;;10.97;;
313;SDS011;143;51.634;7.112;2023-04-08T14:48:54;19.73;;;10.53;;
313;SDS011;143;51.634;7.112;2023-04-08T14:51:20;15.10;;;11.03;;
313;SDS011;143;51.634;7.112;2023-04-08T14:53:45;17.13;;;11.30;;
313;SDS011;143;51.634;7.112;2023-04-08T14:56:11;19.07;;;12.80;;
313;SDS011;143;51.634;7.112;2023-04-08T14:58:37;15.73;;;10.87;;
313;SDS011;143;51.634;7.112;2023-04-08T15:01:03;17.00;;;11.40;;
313;SDS011;143;51.634;7.112;2023-04-08T15:03:28;24.27;;;12.13;;
313;SDS011;143;51.634;7.112;2023-04-08T15:05:55;20.30;;;13.10;;
313;SDS011;143;51.634;7.112;2023-04-08T15:08:21;17.53;;;10.77;;
313;SDS011;143;51.634;7.112;2023-04-08T15:10:47;20.63;;;12.73;;
313;SDS011;143;51.634;7.112;2023-04-08T15:13:12;15.87;;;10.60;;
313;SDS011;143;51.634;7.112;2023-04-08T15:15:38;20.57;;;11.87;;
313;SDS011;143;51.634;7.112;2023-04-08T15:18:04;16.43;;;11.30;;
313;SDS011;143;51.634;7.112;2023-04-08T15:20:29;18.93;;;10.80;;
313;SDS011;143;51.634;7.112;2023-04-08T15:22:55;20.87;;;11.53;;
313;SDS011;143;51.634;7.112;2023-04-08T15:25:21;14.50;;;9.97;;
313;SDS011;143;51.634;7.112;2023-04-08T15:27:46;12.50;;;8.70;;
313;SDS011;143;51.634;7.112;2023-04-08T15:30:12;18.40;;;9.07;;
313;SDS011;143;51.634;7.112;2023-04-08T15:32:38;14.00;;;8.03;;
313;SDS011;143;51.634;7.112;2023-04-08T15:35:05;12.20;;;8.20;;
313;SDS011;143;51.634;7.112;2023-04-08T15:37:31;13.87;;;9.03;;
313;SDS011;143;51.634;7.112;2023-04-08T15:39:57;19.47;;;10.83;;
313;SDS011;143;51.634;7.112;2023-04-08T15:42:23;14.93;;;9.50;;
313;SDS011;143;51.634;7.112;2023-04-08T15:44:48;16.70;;;11.30;;
313;SDS011;143;51.634;7.112;2023-04-08T15:47:14;18.70;;;10.47;;
313;SDS011;143;51.634;7.112;2023-04-08T15:49:40;15.93;;;10.53;;
313;SDS011;143;51.634;7.112;2023-04-08T15:52:05;14.07;;;10.13;;
313;SDS011;143;51.634;7.112;2023-04-08T15:54:34;16.63;;;11.27;;
313;SDS011;143;51.634;7.112;2023-04-08T15:57:00;16.53;;;11.40;;
313;SDS011;143;51.634;7.112;2023-04-08T15:59:28;14.80;;;10.20;;